createdAt,value
2019-04-28T00:00:31.493Z,102.60
2019-04-28T00:03:01.233Z,98.87
2019-04-28T00:05:33.284Z,100.67
2019-04-28T00:08:02.394Z,103.13
2019-04-28T00:10:32.211Z,102.97
2019-04-28T00:13:02.838Z,107.40
2019-04-28T00:15:34.078Z,113.40
2019-04-28T00:18:15.828Z,103.83
2019-04-28T00:20:50.986Z,107.70
2019-04-28T00:23:22.376Z,112.90
2019-04-28T00:26:11.082Z,114.20
2019-04-28T00:28:41.656Z,120.60
2019-04-28T00:31:11.475Z,115.27
2019-04-28T00:33:43.522Z,124.53
2019-04-28T00:36:12.920Z,125.23
2019-04-28T00:38:42.675Z,126.33
2019-04-28T00:41:12.438Z,123.37
2019-04-28T00:43:42.187Z,117.80
2019-04-28T00:46:12.588Z,129.93
2019-04-28T00:48:42.461Z,140.30
2019-04-28T00:51:12.224Z,140.77
2019-04-28T00:53:41.995Z,136.97
2019-04-28T00:56:12.124Z,142.67
2019-04-28T00:58:42.034Z,145.17
2019-04-28T01:01:21.301Z,150.53
2019-04-28T01:03:52.001Z,150.23
2019-04-28T01:06:22.318Z,154.77
2019-04-28T01:08:53.588Z,152.13
2019-04-28T01:11:24.435Z,166.60
2019-04-28T01:13:54.200Z,166.60
2019-04-28T01:16:25.525Z,154.50
2019-04-28T01:19:03.148Z,164.07
2019-04-28T01:21:51.014Z,169.13
2019-04-28T01:24:20.764Z,172.33
2019-04-28T01:26:52.090Z,165.17
2019-04-28T01:29:21.819Z,163.40
2019-04-28T01:32:05.146Z,160.77
2019-04-28T01:34:35.072Z,160.93
2019-04-28T01:37:04.837Z,164.97
2019-04-28T01:39:34.582Z,162.90
2019-04-28T01:42:04.387Z,172.03
2019-04-28T01:44:34.125Z,164.17
2019-04-28T01:47:03.895Z,164.50
2019-04-28T01:49:33.662Z,169.30
2019-04-28T01:52:03.400Z,159.37
2019-04-28T01:54:33.192Z,166.73
2019-04-28T01:57:02.939Z,162.27
2019-04-28T01:59:32.800Z,168.27
2019-04-28T02:02:02.558Z,155.93
2019-04-28T02:04:32.641Z,160.13
2019-04-28T02:07:02.544Z,154.83
2019-04-28T02:09:32.277Z,166.67
2019-04-28T02:12:02.045Z,172.23
2019-04-28T02:14:31.794Z,170.17
2019-04-28T02:17:01.548Z,158.40
2019-04-28T02:19:33.047Z,161.33
2019-04-28T02:22:21.435Z,153.40
2019-04-28T02:24:52.308Z,152.90
2019-04-28T02:27:22.260Z,162.17
2019-04-28T02:29:52.007Z,163.17
2019-04-28T02:32:24.389Z,152.93
2019-04-28T02:34:53.173Z,161.43
2019-04-28T02:37:22.966Z,161.80
2019-04-28T02:40:05.285Z,153.20
2019-04-28T02:42:35.051Z,149.50
2019-04-28T02:45:07.304Z,152.20
2019-04-28T02:47:37.994Z,153.83
2019-04-28T02:50:24.526Z,161.37
2019-04-28T02:53:01.627Z,159.57
2019-04-28T02:55:31.836Z,154.67
2019-04-28T02:58:02.668Z,147.33
2019-04-28T03:00:32.394Z,150.07
2019-04-28T03:03:02.138Z,141.70
2019-04-28T03:05:33.516Z,141.20
2019-04-28T03:08:03.260Z,139.33
2019-04-28T03:10:33.255Z,138.77
2019-04-28T03:13:02.998Z,143.60
2019-04-28T03:15:32.766Z,135.47
2019-04-28T03:18:02.626Z,132.57
2019-04-28T03:20:32.758Z,130.07
2019-04-28T03:23:02.521Z,140.50
2019-04-28T03:25:33.821Z,143.03
2019-04-28T03:28:08.282Z,140.87
2019-04-28T03:30:43.671Z,131.90
2019-04-28T03:33:18.907Z,132.67
2019-04-28T03:35:46.634Z,143.17
2019-04-28T03:38:16.440Z,134.33
2019-04-28T03:40:46.180Z,141.53
2019-04-28T03:43:15.925Z,136.80
2019-04-28T03:45:53.456Z,145.87
2019-04-28T03:48:23.209Z,143.17
2019-04-28T03:50:53.971Z,138.60
2019-04-28T03:53:23.717Z,126.43
2019-04-28T03:55:53.488Z,128.80
2019-04-28T03:58:24.266Z,132.50
2019-04-28T04:00:54.265Z,136.73
2019-04-28T04:03:24.007Z,131.73
2019-04-28T04:05:53.801Z,135.07
2019-04-28T04:08:23.558Z,132.10
2019-04-28T04:11:04.135Z,141.63
2019-04-28T04:13:38.160Z,139.87
2019-04-28T04:16:20.659Z,138.43
2019-04-28T04:18:53.787Z,136.93
2019-04-28T04:21:22.749Z,138.27
2019-04-28T04:23:52.500Z,130.87
2019-04-28T04:26:22.230Z,133.93
2019-04-28T04:28:52.824Z,134.10
2019-04-28T04:31:22.582Z,127.00
2019-04-28T04:33:52.436Z,129.03
2019-04-28T04:36:22.280Z,129.30
2019-04-28T04:38:52.001Z,127.60
2019-04-28T04:41:22.800Z,127.27
2019-04-28T04:43:52.540Z,131.13
2019-04-28T04:46:23.986Z,121.80
2019-04-28T04:48:53.876Z,127.10
2019-04-28T04:51:23.628Z,116.87
2019-04-28T04:53:53.460Z,115.00
2019-04-28T04:56:23.212Z,114.07
2019-04-28T04:58:52.952Z,115.17
2019-04-28T05:01:30.474Z,110.40
2019-04-28T05:04:01.935Z,116.63
2019-04-28T05:06:35.743Z,118.03
2019-04-28T05:09:10.358Z,106.93
2019-04-28T05:11:40.374Z,108.33
2019-04-28T05:14:12.043Z,105.93
2019-04-28T05:16:43.147Z,113.63
2019-04-28T05:19:12.950Z,108.37
2019-04-28T05:21:42.695Z,102.40
2019-04-28T05:24:20.956Z,105.23
2019-04-28T05:26:51.574Z,106.83
2019-04-28T05:29:26.920Z,90.80
2019-04-28T05:31:54.924Z,101.50
2019-04-28T05:34:25.497Z,97.00
2019-04-28T05:36:55.309Z,108.73
2019-04-28T05:39:26.193Z,103.60
2019-04-28T05:41:56.083Z,100.20
2019-04-28T05:44:25.825Z,103.53
2019-04-28T05:46:55.623Z,109.77
2019-04-28T05:49:43.067Z,112.33
2019-04-28T05:52:30.011Z,119.03
2019-04-28T05:55:07.136Z,100.47
2019-04-28T05:57:39.761Z,105.73
2019-04-28T06:00:29.844Z,106.43
2019-04-28T06:03:04.269Z,95.27
2019-04-28T06:05:34.025Z,93.90
2019-04-28T06:08:14.398Z,95.03
2019-04-28T06:10:44.149Z,98.70
2019-04-28T06:13:13.945Z,99.20
2019-04-28T06:15:43.699Z,93.03
2019-04-28T06:18:13.449Z,87.03
2019-04-28T06:20:43.192Z,86.03
2019-04-28T06:23:12.943Z,84.23
2019-04-28T06:25:42.756Z,83.17
2019-04-28T06:28:12.489Z,85.00
2019-04-28T06:30:42.259Z,86.73
2019-04-28T06:33:12.016Z,89.67
2019-04-28T06:35:41.764Z,98.03
2019-04-28T06:38:11.509Z,99.47
2019-04-28T06:40:41.263Z,95.90
2019-04-28T06:43:11.193Z,87.17
2019-04-28T06:45:40.947Z,89.00
2019-04-28T06:48:10.711Z,93.30
2019-04-28T06:50:40.452Z,74.93
2019-04-28T06:53:10.212Z,78.23
2019-04-28T06:55:39.957Z,84.87
2019-04-28T06:58:09.700Z,94.67
2019-04-28T07:00:39.488Z,93.47
2019-04-28T07:03:17.023Z,93.07
2019-04-28T07:05:41.630Z,90.27
2019-04-28T07:08:13.789Z,99.40
2019-04-28T07:10:42.795Z,91.37
2019-04-28T07:13:12.520Z,88.17
2019-04-28T07:15:42.278Z,82.47
2019-04-28T07:18:13.050Z,84.90
2019-04-28T07:20:53.438Z,80.13
2019-04-28T07:23:24.281Z,82.03
2019-04-28T07:25:54.017Z,76.47
2019-04-28T07:28:23.781Z,67.50
2019-04-28T07:30:53.545Z,66.70
2019-04-28T07:33:35.317Z,67.60
2019-04-28T07:35:54.677Z,63.40
2019-04-28T07:38:24.408Z,69.83
2019-04-28T07:40:54.199Z,69.67
2019-04-28T07:43:23.936Z,64.97
2019-04-28T07:45:53.703Z,66.00
2019-04-28T07:48:23.474Z,72.10
2019-04-28T07:50:53.209Z,62.63
2019-04-28T07:53:27.592Z,55.90
2019-04-28T07:55:57.340Z,57.53
2019-04-28T07:58:28.540Z,56.10
2019-04-28T08:00:58.633Z,64.53
2019-04-28T08:03:30.298Z,61.80
2019-04-28T08:06:00.048Z,55.83
2019-04-28T08:08:29.787Z,56.07
2019-04-28T08:10:59.562Z,56.20
2019-04-28T08:13:30.308Z,48.17
2019-04-28T08:16:00.068Z,47.57
2019-04-28T08:18:31.647Z,49.30
2019-04-28T08:21:01.230Z,47.27
2019-04-28T08:23:30.961Z,46.97
2019-04-28T08:26:01.569Z,45.63
2019-04-28T08:28:31.324Z,45.37
2019-04-28T08:31:01.065Z,49.63
2019-04-28T08:33:33.287Z,50.53
2019-04-28T08:36:03.142Z,53.03
2019-04-28T08:38:34.015Z,50.00
2019-04-28T08:41:03.770Z,56.20
2019-04-28T08:43:33.521Z,54.23
2019-04-28T08:46:03.301Z,55.93
2019-04-28T08:48:33.047Z,58.13
2019-04-28T08:51:02.834Z,57.03
2019-04-28T08:53:32.567Z,57.90
2019-04-28T08:56:02.600Z,53.37
2019-04-28T08:58:32.351Z,55.47
2019-04-28T09:01:02.098Z,58.90
2019-04-28T09:03:32.729Z,53.17
2019-04-28T09:06:02.469Z,57.40
2019-04-28T09:08:33.252Z,65.77
2019-04-28T09:11:22.265Z,58.73
2019-04-28T09:13:52.056Z,56.63
2019-04-28T09:16:21.786Z,50.47
2019-04-28T09:18:51.535Z,52.93
2019-04-28T09:21:21.313Z,46.03
2019-04-28T09:23:51.075Z,52.63
2019-04-28T09:26:20.863Z,49.90
2019-04-28T09:28:51.457Z,41.90
2019-04-28T09:31:22.876Z,43.07
2019-04-28T09:33:52.624Z,43.13
2019-04-28T09:36:22.735Z,49.13
2019-04-28T09:38:52.797Z,44.20
2019-04-28T09:41:22.547Z,41.77
2019-04-28T09:43:59.731Z,42.73
2019-04-28T09:46:34.070Z,42.13
2019-04-28T09:49:03.832Z,42.30
2019-04-28T09:51:33.575Z,42.17
2019-04-28T09:54:03.404Z,39.37
2019-04-28T09:56:33.140Z,39.03
2019-04-28T09:59:04.146Z,36.67
2019-04-28T10:01:33.895Z,42.23
2019-04-28T10:04:03.659Z,38.47
2019-04-28T10:06:33.417Z,35.67
2019-04-28T10:09:06.893Z,43.93
2019-04-28T10:11:36.842Z,41.90
2019-04-28T10:14:06.589Z,37.27
2019-04-28T10:16:36.346Z,39.87
2019-04-28T10:19:06.099Z,34.40
2019-04-28T10:21:35.866Z,37.90
2019-04-28T10:24:05.623Z,35.43
2019-04-28T10:26:35.389Z,35.00
2019-04-28T10:29:06.991Z,34.97
2019-04-28T10:31:36.864Z,33.13
2019-04-28T10:34:06.731Z,34.40
2019-04-28T10:36:36.490Z,37.37
2019-04-28T10:39:18.835Z,37.70
2019-04-28T10:41:48.597Z,34.83
2019-04-28T10:44:18.551Z,35.17
2019-04-28T10:46:48.606Z,36.37
2019-04-28T10:49:18.321Z,38.33
2019-04-28T10:51:58.804Z,31.47
2019-04-28T10:54:19.478Z,34.57
2019-04-28T10:56:49.575Z,31.10
2019-04-28T10:59:20.396Z,32.63
2019-04-28T11:01:50.156Z,31.40
2019-04-28T11:04:39.667Z,32.13
2019-04-28T11:07:13.877Z,33.63
2019-04-28T11:09:45.300Z,29.50
2019-04-28T11:12:29.016Z,31.07
2019-04-28T11:14:58.805Z,31.93
2019-04-28T11:17:28.536Z,30.20
2019-04-28T11:19:58.280Z,29.57
2019-04-28T11:22:28.056Z,30.90
2019-04-28T11:24:57.792Z,30.73
2019-04-28T11:27:27.899Z,28.83
2019-04-28T11:29:58.469Z,28.77
2019-04-28T11:32:28.255Z,26.90
2019-04-28T11:35:02.300Z,28.87
2019-04-28T11:37:32.056Z,28.83
2019-04-28T11:40:01.866Z,26.00
2019-04-28T11:42:31.768Z,23.10
2019-04-28T11:45:01.519Z,21.17
2019-04-28T11:47:31.288Z,21.63
2019-04-28T11:50:01.017Z,21.67
2019-04-28T11:52:30.811Z,22.47
2019-04-28T11:55:00.555Z,19.70
2019-04-28T11:57:30.516Z,22.23
2019-04-28T12:00:00.312Z,23.00
2019-04-28T12:02:31.357Z,20.40
2019-04-28T12:05:01.238Z,29.37
2019-04-28T12:07:32.081Z,28.83
2019-04-28T12:10:06.569Z,23.43
2019-04-28T12:12:37.988Z,21.33
2019-04-28T12:15:28.895Z,20.73
2019-04-28T12:18:06.342Z,23.87
2019-04-28T12:20:36.243Z,24.60
2019-04-28T12:23:06.207Z,21.07
2019-04-28T12:25:35.965Z,20.67
2019-04-28T12:28:05.830Z,20.47
2019-04-28T12:30:35.587Z,25.53
2019-04-28T12:33:05.568Z,19.33
2019-04-28T12:35:47.261Z,18.53
2019-04-28T12:38:06.696Z,21.20
2019-04-28T12:40:37.526Z,25.40
2019-04-28T12:43:07.439Z,21.27
2019-04-28T12:45:37.202Z,19.10
2019-04-28T12:48:07.052Z,19.77
2019-04-28T12:50:44.732Z,17.60
2019-04-28T12:53:14.443Z,27.37
2019-04-28T12:55:44.204Z,16.23
2019-04-28T12:58:13.959Z,16.30
2019-04-28T13:00:45.300Z,18.93
2019-04-28T13:03:16.649Z,21.80
2019-04-28T13:06:00.134Z,17.93
2019-04-28T13:08:19.349Z,18.30
2019-04-28T13:10:49.099Z,18.20
2019-04-28T13:13:19.089Z,24.67
2019-04-28T13:15:48.839Z,16.93
2019-04-28T13:18:31.143Z,18.77
2019-04-28T13:21:00.906Z,21.33
2019-04-28T13:23:30.734Z,22.60
2019-04-28T13:26:00.496Z,20.07
2019-04-28T13:28:30.348Z,22.17
2019-04-28T13:31:00.237Z,20.10
2019-04-28T13:33:29.995Z,21.00
2019-04-28T13:35:59.745Z,19.90
2019-04-28T13:38:29.490Z,22.80
2019-04-28T13:40:59.216Z,23.70
2019-04-28T13:43:29.094Z,23.97
2019-04-28T13:45:58.839Z,27.50
2019-04-28T13:48:28.603Z,18.90
2019-04-28T13:50:58.349Z,20.20
2019-04-28T13:53:28.099Z,16.17
2019-04-28T13:55:59.434Z,15.60
2019-04-28T13:58:30.764Z,17.03
2019-04-28T14:01:14.357Z,15.60
2019-04-28T14:03:57.771Z,17.90
2019-04-28T14:06:34.629Z,19.67
2019-04-28T14:09:07.725Z,18.27
2019-04-28T14:11:39.060Z,21.27
2019-04-28T14:14:08.803Z,20.87
2019-04-28T14:16:38.566Z,19.57
2019-04-28T14:19:08.660Z,18.90
2019-04-28T14:21:38.411Z,16.33
2019-04-28T14:24:08.242Z,20.10
2019-04-28T14:26:40.085Z,17.17
2019-04-28T14:29:09.487Z,25.73
2019-04-28T14:31:50.851Z,31.47
2019-04-28T14:34:20.646Z,59.40
2019-04-28T14:36:50.419Z,44.00
2019-04-28T14:39:20.585Z,23.37
2019-04-28T14:41:50.339Z,18.63
2019-04-28T14:44:20.104Z,16.87
2019-04-28T14:46:49.856Z,20.00
2019-04-28T14:49:19.597Z,18.73
2019-04-28T14:51:49.464Z,28.60
2019-04-28T14:54:19.151Z,20.20
2019-04-28T14:56:48.896Z,20.30
2019-04-28T14:59:20.045Z,19.07
2019-04-28T15:02:07.628Z,17.53
2019-04-28T15:04:55.269Z,32.60
2019-04-28T15:07:35.952Z,20.03
2019-04-28T15:10:17.406Z,21.83
2019-04-28T15:12:47.148Z,24.47
2019-04-28T15:15:19.816Z,22.57
2019-04-28T15:17:48.339Z,19.87
2019-04-28T15:20:18.111Z,17.07
2019-04-28T15:23:07.096Z,18.27
2019-04-28T15:25:36.920Z,25.53
2019-04-28T15:28:06.663Z,16.30
2019-04-28T15:30:36.387Z,17.33
2019-04-28T15:33:06.136Z,36.53
2019-04-28T15:35:35.883Z,24.27
2019-04-28T15:38:06.662Z,24.13
2019-04-28T15:40:36.403Z,22.57
2019-04-28T15:43:06.515Z,18.07
2019-04-28T15:45:36.264Z,35.10
2019-04-28T15:48:06.218Z,20.17
2019-04-28T15:50:35.949Z,20.03
2019-04-28T15:53:05.777Z,30.30
2019-04-28T15:55:40.108Z,30.30
2019-04-28T15:58:27.465Z,28.57
2019-04-28T16:00:59.427Z,41.87
2019-04-28T16:03:29.221Z,29.40
2019-04-28T16:06:00.075Z,58.77
2019-04-28T16:08:30.037Z,39.37
2019-04-28T16:10:59.787Z,31.90
2019-04-28T16:13:29.548Z,25.07
2019-04-28T16:15:59.591Z,28.20
2019-04-28T16:18:29.395Z,24.93
2019-04-28T16:20:59.411Z,26.07
2019-04-28T16:23:29.170Z,35.50
2019-04-28T16:25:58.921Z,37.60
2019-04-28T16:28:28.663Z,40.67
2019-04-28T16:30:58.456Z,40.33
2019-04-28T16:33:28.315Z,40.87
2019-04-28T16:35:59.374Z,56.50
2019-04-28T16:38:31.464Z,40.03
2019-04-28T16:41:01.271Z,36.53
2019-04-28T16:43:32.634Z,26.97
2019-04-28T16:46:03.412Z,32.67
2019-04-28T16:48:33.498Z,39.77
2019-04-28T16:51:03.262Z,22.40
2019-04-28T16:53:33.027Z,49.93
2019-04-28T16:56:10.328Z,38.50
2019-04-28T16:58:59.454Z,39.00
2019-04-28T17:01:43.395Z,52.37
2019-04-28T17:04:14.729Z,29.07
2019-04-28T17:06:44.479Z,34.83
2019-04-28T17:09:16.407Z,33.47
2019-04-28T17:11:46.146Z,37.60
2019-04-28T17:14:15.908Z,25.67
2019-04-28T17:16:45.852Z,33.23
2019-04-28T17:19:15.734Z,29.47
2019-04-28T17:21:45.471Z,30.37
2019-04-28T17:24:15.238Z,36.93
2019-04-28T17:26:44.999Z,24.33
2019-04-28T17:29:14.731Z,31.57
2019-04-28T17:31:44.612Z,31.20
2019-04-28T17:34:15.171Z,29.43
2019-04-28T17:36:44.981Z,31.53
2019-04-28T17:39:19.316Z,34.97
2019-04-28T17:41:49.048Z,32.70
2019-04-28T17:44:18.796Z,35.17
2019-04-28T17:46:48.652Z,38.77
2019-04-28T17:49:20.104Z,27.00
2019-04-28T17:51:49.839Z,29.27
2019-04-28T17:54:19.572Z,41.87
2019-04-28T17:56:49.335Z,30.83
2019-04-28T17:59:19.059Z,27.60
2019-04-28T18:01:56.416Z,30.67
2019-04-28T18:04:33.120Z,25.53
2019-04-28T18:07:04.435Z,34.37
2019-04-28T18:09:34.174Z,34.57
2019-04-28T18:12:04.231Z,30.17
2019-04-28T18:14:34.721Z,28.33
2019-04-28T18:17:23.632Z,40.63
2019-04-28T18:19:53.461Z,28.07
2019-04-28T18:22:23.303Z,30.43
2019-04-28T18:24:55.928Z,32.80
2019-04-28T18:27:26.655Z,30.27
2019-04-28T18:29:56.410Z,35.43
2019-04-28T18:32:30.766Z,36.63
2019-04-28T18:35:18.016Z,29.90
2019-04-28T18:38:03.003Z,30.47
2019-04-28T18:40:40.474Z,30.20
2019-04-28T18:43:23.408Z,35.10
2019-04-28T18:45:53.152Z,33.07
2019-04-28T18:48:22.904Z,41.23
2019-04-28T18:50:52.675Z,40.33
2019-04-28T18:53:22.407Z,36.77
2019-04-28T18:55:52.174Z,33.37
2019-04-28T18:58:21.921Z,29.00
2019-04-28T19:00:53.271Z,33.50
2019-04-28T19:03:23.625Z,31.73
2019-04-28T19:05:54.219Z,31.00
2019-04-28T19:08:31.806Z,35.73
2019-04-28T19:11:12.342Z,32.43
2019-04-28T19:13:43.661Z,28.47
2019-04-28T19:16:15.017Z,28.10
2019-04-28T19:18:46.325Z,27.40
2019-04-28T19:21:16.162Z,26.33
2019-04-28T19:23:45.905Z,28.50
2019-04-28T19:26:16.668Z,29.83
2019-04-28T19:28:46.719Z,28.33
2019-04-28T19:31:16.465Z,23.23
2019-04-28T19:33:46.771Z,29.23
2019-04-28T19:36:16.589Z,26.13
2019-04-28T19:38:46.448Z,32.73
2019-04-28T19:41:16.205Z,37.07
2019-04-28T19:43:45.960Z,32.07
2019-04-28T19:46:18.820Z,39.50
2019-04-28T19:48:48.561Z,37.00
2019-04-28T19:51:31.124Z,28.70
2019-04-28T19:53:50.316Z,35.00
2019-04-28T19:56:38.121Z,32.47
2019-04-28T19:59:25.958Z,30.90
2019-04-28T20:01:56.074Z,33.47
2019-04-28T20:04:26.202Z,32.97
2019-04-28T20:06:57.080Z,32.20
2019-04-28T20:09:26.899Z,59.90
2019-04-28T20:11:56.721Z,34.10
2019-04-28T20:14:26.472Z,38.63
2019-04-28T20:16:56.243Z,32.33
2019-04-28T20:19:26.291Z,37.10
2019-04-28T20:21:56.039Z,32.87
2019-04-28T20:24:25.892Z,41.50
2019-04-28T20:26:55.647Z,51.27
2019-04-28T20:29:25.400Z,31.33
2019-04-28T20:31:55.120Z,29.10
2019-04-28T20:34:24.894Z,26.87
2019-04-28T20:36:59.067Z,26.40
2019-04-28T20:39:30.498Z,25.97
2019-04-28T20:42:01.915Z,26.03
2019-04-28T20:44:31.705Z,30.17
2019-04-28T20:47:01.444Z,28.73
2019-04-28T20:49:31.201Z,33.47
2019-04-28T20:52:00.938Z,35.23
2019-04-28T20:54:30.895Z,33.57
2019-04-28T20:57:00.751Z,33.53
2019-04-28T20:59:30.489Z,28.17
2019-04-28T21:02:00.267Z,35.80
2019-04-28T21:04:30.009Z,27.57
2019-04-28T21:06:59.736Z,31.50
2019-04-28T21:09:29.480Z,30.57
2019-04-28T21:11:59.261Z,23.27
2019-04-28T21:14:29.029Z,26.10
2019-04-28T21:16:58.762Z,29.80
2019-04-28T21:19:28.516Z,24.53
2019-04-28T21:21:58.268Z,25.07
2019-04-28T21:24:28.004Z,25.73
2019-04-28T21:26:57.803Z,25.17
2019-04-28T21:29:27.558Z,25.50
2019-04-28T21:31:57.311Z,29.80
2019-04-28T21:34:27.067Z,23.93
2019-04-28T21:36:56.809Z,20.70
2019-04-28T21:39:26.596Z,20.10
2019-04-28T21:41:57.647Z,21.27
2019-04-28T21:44:38.048Z,21.43
2019-04-28T21:47:11.796Z,21.47
2019-04-28T21:49:43.281Z,20.97
2019-04-28T21:52:13.018Z,21.97
2019-04-28T21:54:42.768Z,19.30
2019-04-28T21:57:12.519Z,19.97
2019-04-28T21:59:42.253Z,21.93
2019-04-28T22:02:12.036Z,21.87
2019-04-28T22:04:42.071Z,20.33
2019-04-28T22:07:12.064Z,20.43
2019-04-28T22:09:41.831Z,17.27
2019-04-28T22:12:13.120Z,18.73
2019-04-28T22:14:42.899Z,23.13
2019-04-28T22:17:12.647Z,21.63
2019-04-28T22:19:42.390Z,24.43
2019-04-28T22:22:12.290Z,20.37
2019-04-28T22:24:43.604Z,22.57
2019-04-28T22:27:13.761Z,21.70
2019-04-28T22:29:43.508Z,17.77
2019-04-28T22:32:13.301Z,18.30
2019-04-28T22:34:43.018Z,16.40
2019-04-28T22:37:12.746Z,15.83
2019-04-28T22:39:42.500Z,15.17
2019-04-28T22:42:13.783Z,16.80
2019-04-28T22:44:43.569Z,15.77
2019-04-28T22:47:13.313Z,14.93
2019-04-28T22:49:43.050Z,17.40
2019-04-28T22:52:12.812Z,17.77
2019-04-28T22:54:49.962Z,17.90
2019-04-28T22:57:37.254Z,16.90
2019-04-28T23:00:11.347Z,13.20
2019-04-28T23:02:42.657Z,19.53
2019-04-28T23:05:12.388Z,14.23
2019-04-28T23:07:42.143Z,13.13
2019-04-28T23:10:13.483Z,12.53
2019-04-28T23:12:43.294Z,14.60
2019-04-28T23:15:14.051Z,12.53
2019-04-28T23:17:44.001Z,15.03
2019-04-28T23:20:13.920Z,12.10
2019-04-28T23:22:48.083Z,14.90
2019-04-28T23:25:17.823Z,16.10
2019-04-28T23:27:47.568Z,14.20
2019-04-28T23:30:36.915Z,13.53
2019-04-28T23:33:06.735Z,15.87
2019-04-28T23:35:36.523Z,13.97
2019-04-28T23:38:06.324Z,16.67
2019-04-28T23:40:37.594Z,15.17
2019-04-28T23:43:08.981Z,14.07
2019-04-28T23:45:39.070Z,13.77
2019-04-28T23:48:08.813Z,13.97
2019-04-28T23:50:40.172Z,15.57
2019-04-28T23:53:11.478Z,11.77
2019-04-28T23:55:41.263Z,12.60
2019-04-28T23:58:11.004Z,13.30
